createdAt,value
2024-02-15T00:00:01.011Z,76.59
2024-02-15T00:02:27.811Z,76.60
2024-02-15T00:04:54.641Z,76.53
2024-02-15T00:07:23.442Z,76.63
2024-02-15T00:09:50.496Z,76.61
2024-02-15T00:12:17.093Z,76.67
2024-02-15T00:14:43.980Z,76.70
2024-02-15T00:17:10.598Z,76.64
2024-02-15T00:19:37.451Z,76.47
2024-02-15T00:22:04.075Z,76.65
2024-02-15T00:24:31.975Z,76.61
2024-02-15T00:26:58.633Z,76.59
2024-02-15T00:29:27.362Z,76.46
2024-02-15T00:31:53.844Z,76.49
2024-02-15T00:34:22.028Z,76.51
2024-02-15T00:36:48.842Z,76.54
2024-02-15T00:39:15.466Z,76.47
2024-02-15T00:41:43.229Z,76.50
2024-02-15T00:44:13.325Z,76.62
2024-02-15T00:46:40.011Z,76.36
2024-02-15T00:49:09.785Z,76.51
2024-02-15T00:51:37.611Z,76.45
2024-02-15T00:54:04.709Z,76.49
2024-02-15T00:56:32.895Z,76.40
2024-02-15T00:59:02.851Z,76.56
2024-02-15T01:01:29.376Z,76.38
2024-02-15T01:03:56.260Z,76.31
2024-02-15T01:06:23.460Z,76.49
2024-02-15T01:08:50.403Z,76.52
2024-02-15T01:11:16.995Z,76.47
2024-02-15T01:13:43.812Z,76.32
2024-02-15T01:16:10.402Z,76.43
2024-02-15T01:18:37.227Z,76.44
2024-02-15T01:21:04.180Z,76.42
2024-02-15T01:23:30.871Z,76.57
2024-02-15T01:25:58.889Z,76.42
2024-02-15T01:28:25.454Z,76.50
2024-02-15T01:30:52.098Z,76.54
2024-02-15T01:33:19.156Z,76.48
2024-02-15T01:35:45.988Z,76.42
2024-02-15T01:38:12.508Z,76.49
2024-02-15T01:40:39.071Z,76.50
2024-02-15T01:43:05.618Z,76.49
2024-02-15T01:45:32.243Z,76.60
2024-02-15T01:47:59.526Z,76.49
2024-02-15T01:50:26.797Z,76.50
2024-02-15T01:52:58.099Z,76.54
2024-02-15T01:55:24.803Z,76.61
2024-02-15T01:57:51.463Z,76.48
2024-02-15T02:00:19.761Z,76.44
2024-02-15T02:02:47.149Z,76.56
2024-02-15T02:05:13.882Z,76.46
2024-02-15T02:07:40.526Z,76.48
2024-02-15T02:10:08.748Z,76.54
2024-02-15T02:12:35.549Z,76.50
2024-02-15T02:15:02.236Z,76.58
2024-02-15T02:17:29.842Z,76.38
2024-02-15T02:19:56.504Z,76.52
2024-02-15T02:22:23.437Z,76.50
2024-02-15T02:25:09.810Z,76.39
2024-02-15T02:27:37.136Z,76.51
2024-02-15T02:30:16.321Z,76.45
2024-02-15T02:32:43.097Z,76.41
2024-02-15T02:35:12.881Z,76.46
2024-02-15T02:37:40.578Z,76.39
2024-02-15T02:40:10.855Z,76.45
2024-02-15T02:42:47.206Z,76.47
2024-02-15T02:45:13.748Z,76.44
2024-02-15T02:47:40.370Z,76.51
2024-02-15T02:50:09.245Z,76.52
2024-02-15T02:52:35.733Z,76.39
2024-02-15T02:55:02.386Z,76.46
2024-02-15T02:57:28.902Z,76.44
2024-02-15T02:59:55.589Z,76.39
2024-02-15T03:02:23.712Z,76.47
2024-02-15T03:04:50.504Z,76.56
2024-02-15T03:07:18.718Z,76.53
2024-02-15T03:09:45.229Z,76.30
2024-02-15T03:12:11.773Z,76.46
2024-02-15T03:14:38.305Z,76.56
2024-02-15T03:17:04.846Z,76.51
2024-02-15T03:19:32.061Z,76.41
2024-02-15T03:21:58.712Z,76.31
2024-02-15T03:24:25.266Z,76.51
2024-02-15T03:26:53.270Z,76.39
2024-02-15T03:29:21.497Z,76.38
2024-02-15T03:31:50.210Z,76.33
2024-02-15T03:34:16.972Z,76.34
2024-02-15T03:36:43.597Z,76.47
2024-02-15T03:39:10.175Z,76.36
2024-02-15T03:41:37.122Z,76.43
2024-02-15T03:44:03.846Z,76.44
2024-02-15T03:46:30.436Z,76.40
2024-02-15T03:48:58.381Z,76.40
2024-02-15T03:51:25.753Z,76.43
2024-02-15T03:53:53.441Z,76.38
2024-02-15T03:56:22.529Z,76.32
2024-02-15T03:58:50.757Z,76.27
2024-02-15T04:01:17.929Z,76.38
2024-02-15T04:03:44.473Z,76.31
2024-02-15T04:06:12.505Z,76.39
2024-02-15T04:08:40.261Z,76.32
2024-02-15T04:11:11.222Z,76.43
2024-02-15T04:13:38.551Z,76.46
2024-02-15T04:16:06.077Z,76.37
2024-02-15T04:18:33.760Z,76.35
2024-02-15T04:21:00.693Z,76.36
2024-02-15T04:23:27.373Z,76.35
2024-02-15T04:25:55.365Z,76.31
2024-02-15T04:28:21.951Z,76.37
2024-02-15T04:30:50.000Z,76.32
2024-02-15T04:33:17.746Z,76.38
2024-02-15T04:35:45.126Z,76.25
2024-02-15T04:38:11.729Z,76.21
2024-02-15T04:40:40.523Z,76.33
2024-02-15T04:43:07.862Z,76.27
2024-02-15T04:45:34.347Z,76.15
2024-02-15T04:48:03.425Z,76.22
2024-02-15T04:50:30.598Z,76.22
2024-02-15T04:52:57.375Z,76.29
2024-02-15T04:55:24.018Z,76.19
2024-02-15T04:57:55.939Z,75.97
2024-02-15T05:00:24.374Z,76.32
2024-02-15T05:02:51.213Z,76.35
2024-02-15T05:05:18.075Z,76.17
2024-02-15T05:07:44.956Z,76.22
2024-02-15T05:10:11.860Z,76.29
2024-02-15T05:12:39.786Z,76.15
2024-02-15T05:15:11.583Z,76.24
2024-02-15T05:17:42.157Z,76.25
2024-02-15T05:20:14.275Z,76.12
2024-02-15T05:22:47.576Z,76.30
2024-02-15T05:25:16.819Z,76.13
2024-02-15T05:27:45.377Z,76.19
2024-02-15T05:30:12.887Z,76.21
2024-02-15T05:32:44.131Z,76.26
2024-02-15T05:35:12.224Z,76.17
2024-02-15T05:37:39.633Z,76.15
2024-02-15T05:40:07.525Z,76.12
2024-02-15T05:42:34.099Z,76.13
2024-02-15T05:45:28.032Z,75.97
2024-02-15T05:47:55.764Z,76.03
2024-02-15T05:50:24.385Z,76.20
2024-02-15T05:52:54.219Z,76.07
2024-02-15T05:55:21.195Z,76.08
2024-02-15T05:57:47.860Z,76.12
2024-02-15T06:00:21.913Z,76.00
2024-02-15T06:02:50.738Z,76.02
2024-02-15T06:05:18.153Z,75.86
2024-02-15T06:07:45.700Z,76.17
2024-02-15T06:10:12.379Z,76.21
2024-02-15T06:12:39.108Z,76.19
2024-02-15T06:15:15.870Z,76.05
2024-02-15T06:17:45.238Z,75.88
2024-02-15T06:20:15.389Z,76.11
2024-02-15T06:22:42.514Z,76.12
2024-02-15T06:25:09.458Z,76.10
2024-02-15T06:27:37.799Z,76.08
2024-02-15T06:30:23.584Z,76.38
2024-02-15T06:33:08.738Z,76.48
2024-02-15T06:35:53.994Z,76.78
2024-02-15T06:38:39.247Z,77.17
2024-02-15T06:41:05.754Z,77.33
2024-02-15T06:43:34.311Z,77.36
2024-02-15T06:46:00.855Z,77.43
2024-02-15T06:48:27.615Z,77.54
2024-02-15T06:50:54.282Z,77.65
2024-02-15T06:53:21.606Z,77.66
2024-02-15T06:55:51.561Z,77.72
2024-02-15T06:58:18.934Z,77.65
2024-02-15T07:00:45.510Z,77.74
2024-02-15T07:03:12.252Z,77.73
2024-02-15T07:05:42.316Z,78.05
2024-02-15T07:08:11.616Z,77.82
2024-02-15T07:10:41.269Z,77.92
2024-02-15T07:13:07.849Z,77.66
2024-02-15T07:15:40.370Z,77.84
2024-02-15T07:18:07.857Z,77.78
2024-02-15T07:20:35.408Z,77.85
2024-02-15T07:23:02.058Z,77.89
2024-02-15T07:25:28.585Z,77.56
2024-02-15T07:27:55.376Z,77.91
2024-02-15T07:30:24.838Z,77.79
2024-02-15T07:32:52.529Z,77.96
2024-02-15T07:35:19.157Z,77.82
2024-02-15T07:37:59.808Z,78.01
2024-02-15T07:40:29.502Z,77.84
2024-02-15T07:42:58.611Z,77.86
2024-02-15T07:45:25.248Z,78.04
2024-02-15T07:47:51.928Z,78.09
2024-02-15T07:50:23.856Z,78.58
2024-02-15T07:52:51.016Z,78.41
2024-02-15T07:55:17.533Z,78.47
2024-02-15T07:57:44.059Z,78.41
2024-02-15T08:00:12.281Z,78.25
2024-02-15T08:02:41.878Z,78.42
2024-02-15T08:05:11.427Z,78.33
2024-02-15T08:07:48.539Z,78.32
2024-02-15T08:10:15.359Z,78.26
2024-02-15T08:12:46.279Z,78.17
2024-02-15T08:15:13.692Z,78.19
2024-02-15T08:17:42.015Z,78.21
2024-02-15T08:20:11.168Z,78.21
2024-02-15T08:22:41.556Z,78.11
2024-02-15T08:25:11.425Z,78.10
2024-02-15T08:27:44.074Z,78.13
2024-02-15T08:30:14.925Z,78.23
2024-02-15T08:32:45.105Z,78.37
2024-02-15T08:35:13.016Z,78.67
2024-02-15T08:37:40.377Z,78.39
2024-02-15T08:40:11.864Z,78.60
2024-02-15T08:42:44.944Z,78.57
2024-02-15T08:45:12.117Z,78.63
2024-02-15T08:47:40.748Z,78.73
2024-02-15T08:50:12.742Z,78.71
2024-02-15T08:52:40.598Z,78.66
2024-02-15T08:55:11.867Z,78.64
2024-02-15T08:57:39.070Z,78.76
2024-02-15T09:00:11.257Z,78.54
2024-02-15T09:02:37.801Z,78.55
2024-02-15T09:05:04.670Z,78.48
2024-02-15T09:07:31.733Z,78.42
2024-02-15T09:09:58.271Z,78.42
2024-02-15T09:12:24.845Z,78.25
2024-02-15T09:14:51.476Z,78.34
2024-02-15T09:17:18.168Z,78.32
2024-02-15T09:19:44.677Z,78.37
2024-02-15T09:22:11.187Z,78.62
2024-02-15T09:24:38.341Z,78.72
2024-02-15T09:27:05.222Z,78.52
2024-02-15T09:29:33.819Z,78.94
2024-02-15T09:32:03.245Z,79.34
2024-02-15T09:34:29.917Z,79.38
2024-02-15T09:36:57.656Z,79.57
2024-02-15T09:39:24.227Z,79.54
2024-02-15T09:41:59.484Z,80.00
2024-02-15T09:44:31.086Z,79.94
2024-02-15T09:47:09.656Z,79.60
2024-02-15T09:49:41.281Z,79.61
2024-02-15T09:52:18.978Z,80.11
2024-02-15T09:54:46.410Z,80.04
2024-02-15T09:57:13.429Z,80.20
2024-02-15T09:59:41.298Z,80.24
2024-02-15T10:02:12.182Z,79.98
2024-02-15T10:04:40.694Z,80.09
2024-02-15T10:07:10.232Z,80.31
2024-02-15T10:09:39.863Z,80.09
2024-02-15T10:12:08.049Z,79.95
2024-02-15T10:14:35.669Z,80.12
2024-02-15T10:17:12.601Z,80.21
2024-02-15T10:19:40.550Z,79.89
2024-02-15T10:22:08.757Z,79.97
2024-02-15T10:24:36.223Z,79.87
2024-02-15T10:27:05.368Z,80.16
2024-02-15T10:29:32.047Z,80.22
2024-02-15T10:32:03.107Z,80.23
2024-02-15T10:34:31.679Z,80.04
2024-02-15T10:37:17.619Z,80.15
2024-02-15T10:39:44.106Z,80.06
2024-02-15T10:42:13.592Z,80.25
2024-02-15T10:44:41.732Z,80.12
2024-02-15T10:47:09.885Z,80.38
2024-02-15T10:49:39.462Z,80.45
2024-02-15T10:52:07.268Z,80.41
2024-02-15T10:54:48.026Z,80.84
2024-02-15T10:57:23.253Z,80.82
2024-02-15T10:59:58.750Z,80.67
2024-02-15T11:02:31.103Z,80.66
2024-02-15T11:05:11.114Z,80.46
2024-02-15T11:07:38.408Z,80.42
2024-02-15T11:10:11.528Z,80.57
2024-02-15T11:12:39.963Z,80.79
2024-02-15T11:15:08.067Z,80.68
2024-02-15T11:17:41.237Z,80.70
2024-02-15T11:20:10.835Z,80.79
2024-02-15T11:22:38.268Z,80.59
2024-02-15T11:25:18.014Z,80.87
2024-02-15T11:27:44.509Z,80.55
2024-02-15T11:30:15.255Z,80.69
2024-02-15T11:32:53.215Z,80.43
2024-02-15T11:35:24.103Z,80.63
2024-02-15T11:37:59.838Z,80.53
2024-02-15T11:40:50.368Z,80.56
2024-02-15T11:43:50.836Z,80.45
2024-02-15T11:46:21.758Z,80.44
2024-02-15T11:48:49.600Z,80.32
2024-02-15T11:51:48.553Z,80.51
2024-02-15T11:54:21.893Z,80.64
2024-02-15T11:56:55.551Z,81.17
2024-02-15T11:59:33.771Z,80.73
2024-02-15T12:02:19.050Z,80.56
2024-02-15T12:05:04.104Z,80.50
2024-02-15T12:07:50.415Z,80.55
2024-02-15T12:10:39.051Z,80.76
2024-02-15T12:13:24.228Z,80.85
2024-02-15T12:16:19.379Z,80.82
2024-02-15T12:18:48.993Z,80.76
2024-02-15T12:21:24.684Z,80.49
2024-02-15T12:23:52.816Z,80.40
2024-02-15T12:26:24.792Z,80.49
2024-02-15T12:28:55.885Z,80.63
2024-02-15T12:31:23.608Z,80.96
2024-02-15T12:34:02.740Z,80.80
2024-02-15T12:36:30.611Z,80.88
2024-02-15T12:39:11.290Z,81.04
2024-02-15T12:41:42.215Z,81.01
2024-02-15T12:44:09.098Z,81.02
2024-02-15T12:46:35.730Z,81.00
2024-02-15T12:49:29.597Z,80.95
2024-02-15T12:52:34.987Z,80.92
2024-02-15T12:55:35.372Z,80.99
2024-02-15T12:58:09.967Z,80.93
2024-02-15T13:00:40.153Z,80.98
2024-02-15T13:03:12.548Z,81.06
2024-02-15T13:05:40.366Z,81.23
2024-02-15T13:08:11.623Z,81.04
2024-02-15T13:10:40.346Z,81.13
2024-02-15T13:13:07.235Z,81.17
2024-02-15T13:15:34.615Z,81.01
2024-02-15T13:18:01.878Z,81.11
2024-02-15T13:20:33.542Z,81.13
2024-02-15T13:23:09.720Z,81.12
2024-02-15T13:25:37.906Z,81.24
2024-02-15T13:28:05.846Z,81.02
2024-02-15T13:30:33.375Z,81.11
2024-02-15T13:33:03.388Z,81.11
2024-02-15T13:35:30.303Z,81.24
2024-02-15T13:37:59.318Z,81.25
2024-02-15T13:40:28.626Z,81.16
2024-02-15T13:43:00.002Z,81.36
2024-02-15T13:45:35.572Z,81.20
2024-02-15T13:48:02.661Z,81.22
2024-02-15T13:50:33.909Z,81.35
2024-02-15T13:53:01.334Z,81.42
2024-02-15T13:55:28.044Z,81.32
2024-02-15T13:57:57.783Z,81.26
2024-02-15T14:00:30.913Z,81.43
2024-02-15T14:02:59.728Z,81.33
2024-02-15T14:05:31.269Z,81.43
2024-02-15T14:08:00.009Z,81.33
2024-02-15T14:10:30.527Z,81.34
2024-02-15T14:12:59.461Z,81.30
2024-02-15T14:15:27.133Z,81.34
2024-02-15T14:17:54.168Z,81.46
2024-02-15T14:20:22.462Z,81.41
2024-02-15T14:22:56.505Z,81.49
2024-02-15T14:25:24.150Z,81.55
2024-02-15T14:27:50.881Z,81.58
2024-02-15T14:30:35.966Z,81.66
2024-02-15T14:33:06.050Z,81.57
2024-02-15T14:35:37.095Z,81.56
2024-02-15T14:38:09.674Z,81.61
2024-02-15T14:43:18.811Z,81.65
2024-02-15T14:45:46.023Z,81.77
2024-02-15T14:48:14.111Z,81.66
2024-02-15T14:50:41.546Z,81.81
2024-02-15T14:53:09.031Z,81.60
2024-02-15T14:55:36.209Z,81.75
2024-02-15T14:58:04.745Z,81.65
2024-02-15T15:00:37.890Z,81.67
2024-02-15T15:03:05.429Z,81.76
2024-02-15T15:05:50.936Z,81.52
2024-02-15T15:08:36.105Z,81.55
2024-02-15T15:11:21.606Z,81.66
2024-02-15T15:13:48.183Z,81.76
2024-02-15T15:16:18.896Z,81.82
2024-02-15T15:18:47.935Z,82.00
2024-02-15T15:21:17.324Z,81.94
2024-02-15T15:23:44.112Z,81.95
2024-02-15T15:26:13.471Z,82.12
2024-02-15T15:28:41.135Z,81.96
2024-02-15T15:31:08.433Z,82.09
2024-02-15T15:33:35.224Z,82.19
2024-02-15T15:36:02.001Z,83.66
2024-02-15T15:38:28.585Z,81.69
2024-02-15T15:40:55.773Z,81.08
2024-02-15T15:43:23.218Z,81.40
2024-02-15T15:45:49.735Z,81.83
2024-02-15T15:48:17.278Z,81.96
2024-02-15T15:50:44.473Z,82.26
2024-02-15T15:53:13.882Z,82.17
2024-02-15T15:55:40.423Z,82.21
2024-02-15T15:58:06.989Z,82.08
2024-02-15T16:00:36.307Z,82.38
2024-02-15T16:03:06.010Z,82.53
2024-02-15T16:05:32.844Z,82.78
2024-02-15T16:07:59.657Z,82.57
2024-02-15T16:10:29.582Z,82.44
2024-02-15T16:13:02.371Z,82.52
2024-02-15T16:15:29.103Z,82.16
2024-02-15T16:17:56.218Z,82.29
2024-02-15T16:20:23.864Z,82.38
2024-02-15T16:22:51.207Z,82.46
2024-02-15T16:25:18.501Z,82.38
2024-02-15T16:27:47.479Z,82.43
2024-02-15T16:30:14.946Z,82.53
2024-02-15T16:32:42.299Z,82.35
2024-02-15T16:35:15.904Z,82.31
2024-02-15T16:37:43.903Z,82.26
2024-02-15T16:40:13.510Z,82.18
2024-02-15T16:42:45.941Z,82.16
2024-02-15T16:45:15.820Z,82.24
2024-02-15T16:47:50.164Z,82.34
2024-02-15T16:50:17.124Z,82.70
2024-02-15T16:52:44.551Z,84.07
2024-02-15T16:55:11.466Z,83.57
2024-02-15T16:57:39.407Z,83.58
2024-02-15T17:00:08.303Z,83.54
2024-02-15T17:02:43.035Z,83.80
2024-02-15T17:05:09.994Z,83.83
2024-02-15T17:07:36.726Z,83.91
2024-02-15T17:10:03.387Z,84.34
2024-02-15T17:12:30.116Z,84.00
2024-02-15T17:14:57.046Z,83.94
2024-02-15T17:17:24.917Z,83.99
2024-02-15T17:19:52.551Z,84.07
2024-02-15T17:22:19.499Z,84.06
2024-02-15T17:24:46.147Z,83.86
2024-02-15T17:27:12.864Z,83.74
2024-02-15T17:29:40.437Z,83.37
2024-02-15T17:32:07.738Z,83.22
2024-02-15T17:34:34.447Z,83.04
2024-02-15T17:37:01.054Z,83.04
2024-02-15T17:39:27.772Z,83.08
2024-02-15T17:41:54.668Z,83.23
2024-02-15T17:44:21.485Z,83.35
2024-02-15T17:46:48.090Z,83.27
2024-02-15T17:49:14.765Z,82.97
2024-02-15T17:51:44.597Z,82.80
2024-02-15T17:54:12.076Z,82.97
2024-02-15T17:56:38.687Z,82.86
2024-02-15T17:59:05.275Z,82.51
2024-02-15T18:01:38.582Z,82.72
2024-02-15T18:04:05.481Z,82.86
2024-02-15T18:06:32.102Z,82.33
2024-02-15T18:08:58.714Z,82.21
2024-02-15T18:11:25.365Z,82.44
2024-02-15T18:13:52.282Z,82.32
2024-02-15T18:16:18.988Z,82.41
2024-02-15T18:18:46.227Z,82.51
2024-02-15T18:21:13.059Z,82.24
2024-02-15T18:23:45.262Z,82.15
2024-02-15T18:26:12.756Z,81.88
2024-02-15T18:28:39.308Z,82.04
2024-02-15T18:31:09.430Z,81.74
2024-02-15T18:33:40.414Z,81.74
2024-02-15T18:36:09.603Z,81.54
2024-02-15T18:38:37.353Z,81.44
2024-02-15T18:41:06.874Z,81.30
2024-02-15T18:43:35.413Z,81.03
2024-02-15T18:46:02.137Z,80.95
2024-02-15T18:48:28.841Z,80.94
2024-02-15T18:50:55.753Z,80.74
2024-02-15T18:53:23.558Z,80.44
2024-02-15T18:55:50.158Z,80.61
2024-02-15T18:58:18.462Z,80.46
2024-02-15T19:00:56.504Z,80.13
2024-02-15T19:03:25.160Z,80.25
2024-02-15T19:05:51.911Z,80.03
2024-02-15T19:08:18.583Z,80.34
2024-02-15T19:10:45.214Z,80.33
2024-02-15T19:13:11.839Z,80.21
2024-02-15T19:15:40.181Z,79.95
2024-02-15T19:18:07.917Z,79.94
2024-02-15T19:20:35.116Z,80.11
2024-02-15T19:23:01.793Z,79.83
2024-02-15T19:25:28.477Z,79.95
2024-02-15T19:27:55.054Z,80.13
2024-02-15T19:30:22.237Z,80.05
2024-02-15T19:32:50.708Z,80.11
2024-02-15T19:35:18.747Z,80.03
2024-02-15T19:37:47.014Z,79.72
2024-02-15T19:40:18.946Z,79.90
2024-02-15T19:42:48.244Z,79.96
2024-02-15T19:45:22.096Z,80.23
2024-02-15T19:47:55.264Z,80.07
2024-02-15T19:50:26.934Z,80.52
2024-02-15T19:52:54.795Z,80.24
2024-02-15T19:55:23.180Z,80.42
2024-02-15T19:57:50.083Z,80.28
2024-02-15T20:00:18.648Z,80.40
2024-02-15T20:02:46.728Z,80.08
2024-02-15T20:05:13.654Z,80.39
2024-02-15T20:07:41.026Z,80.35
2024-02-15T20:10:09.056Z,80.33
2024-02-15T20:12:36.840Z,80.53
2024-02-15T20:15:05.054Z,80.09
2024-02-15T20:17:31.902Z,80.47
2024-02-15T20:19:58.706Z,80.17
2024-02-15T20:22:25.348Z,80.20
2024-02-15T20:24:52.038Z,80.16
2024-02-15T20:27:22.580Z,80.64
2024-02-15T20:29:51.154Z,80.35
2024-02-15T20:32:19.799Z,80.27
2024-02-15T20:34:47.407Z,80.40
2024-02-15T20:37:14.791Z,80.07
2024-02-15T20:39:41.393Z,79.57
2024-02-15T20:42:08.288Z,79.68
2024-02-15T20:44:35.111Z,79.63
2024-02-15T20:47:05.480Z,79.76
2024-02-15T20:49:32.396Z,79.58
2024-02-15T20:51:59.600Z,79.59
2024-02-15T20:54:26.410Z,79.81
2024-02-15T20:56:53.088Z,79.57
2024-02-15T20:59:19.697Z,79.68
2024-02-15T21:01:46.234Z,79.43
2024-02-15T21:04:13.666Z,79.51
2024-02-15T21:06:40.423Z,79.34
2024-02-15T21:09:14.572Z,79.38
2024-02-15T21:11:41.735Z,79.33
2024-02-15T21:14:08.691Z,79.38
2024-02-15T21:16:36.362Z,79.45
2024-02-15T21:19:09.794Z,79.44
2024-02-15T21:21:37.623Z,79.28
2024-02-15T21:24:05.016Z,79.17
2024-02-15T21:26:31.637Z,79.33
2024-02-15T21:28:58.339Z,79.33
2024-02-15T21:31:26.482Z,79.29
2024-02-15T21:33:57.666Z,78.97
2024-02-15T21:36:24.474Z,79.18
2024-02-15T21:38:54.234Z,78.99
2024-02-15T21:41:21.096Z,79.15
2024-02-15T21:43:47.845Z,79.05
2024-02-15T21:46:14.526Z,78.83
2024-02-15T21:48:41.324Z,79.00
2024-02-15T21:51:08.019Z,79.15
2024-02-15T21:53:36.003Z,78.90
2024-02-15T21:56:02.636Z,79.15
2024-02-15T21:58:29.452Z,78.78
2024-02-15T22:00:56.296Z,78.97
2024-02-15T22:03:26.358Z,78.82
2024-02-15T22:05:53.043Z,78.69
2024-02-15T22:08:19.629Z,78.80
2024-02-15T22:10:48.532Z,78.78
2024-02-15T22:13:15.339Z,79.01
2024-02-15T22:15:42.247Z,78.86
2024-02-15T22:18:09.530Z,78.74
2024-02-15T22:20:36.467Z,78.59
2024-02-15T22:23:03.732Z,78.77
2024-02-15T22:25:31.957Z,78.78
2024-02-15T22:27:58.980Z,78.49
2024-02-15T22:30:25.678Z,78.51
2024-02-15T22:32:52.469Z,78.63
2024-02-15T22:35:19.139Z,78.33
2024-02-15T22:37:45.823Z,78.54
2024-02-15T22:40:12.846Z,78.59
2024-02-15T22:42:39.480Z,78.55
2024-02-15T22:45:09.080Z,78.37
2024-02-15T22:47:35.789Z,78.53
2024-02-15T22:50:02.447Z,78.44
2024-02-15T22:52:30.061Z,78.58
2024-02-15T22:54:56.639Z,78.40
2024-02-15T22:57:23.194Z,78.58
2024-02-15T22:59:52.792Z,78.58
2024-02-15T23:02:20.591Z,78.45
2024-02-15T23:04:48.597Z,78.57
2024-02-15T23:07:15.450Z,78.36
2024-02-15T23:09:44.096Z,78.37
2024-02-15T23:12:11.115Z,78.27
2024-02-15T23:14:37.888Z,78.50
2024-02-15T23:17:04.414Z,78.32
2024-02-15T23:19:31.052Z,78.53
2024-02-15T23:21:57.615Z,78.44
2024-02-15T23:24:24.148Z,78.36
2024-02-15T23:26:50.721Z,78.37
2024-02-15T23:29:17.725Z,78.29
2024-02-15T23:31:44.362Z,78.13
2024-02-15T23:34:11.036Z,78.32
2024-02-15T23:36:56.548Z,78.42
2024-02-15T23:39:41.419Z,78.24
2024-02-15T23:42:08.373Z,78.28
2024-02-15T23:44:35.199Z,78.19
2024-02-15T23:47:01.875Z,78.28
2024-02-15T23:49:28.856Z,78.11
2024-02-15T23:51:55.939Z,78.04
2024-02-15T23:54:22.653Z,78.29
2024-02-15T23:56:49.332Z,78.22
2024-02-15T23:59:16.109Z,78.26
